createdAt,value
2018-08-13T00:00:36.001Z,17.90
2018-08-13T00:03:39.605Z,17.80
2018-08-13T00:06:43.239Z,17.70
2018-08-13T00:09:46.849Z,17.60
2018-08-13T00:12:50.466Z,17.60
2018-08-13T00:15:54.079Z,17.50
2018-08-13T00:18:57.714Z,17.50
2018-08-13T00:22:01.636Z,17.40
2018-08-13T00:25:05.306Z,17.40
2018-08-13T00:28:09.617Z,17.30
2018-08-13T00:31:13.241Z,17.30
2018-08-13T00:34:16.846Z,17.20
2018-08-13T00:37:20.636Z,17.20
2018-08-13T00:40:24.323Z,17.20
2018-08-13T00:43:28.052Z,17.10
2018-08-13T00:46:32.396Z,17.10
2018-08-13T00:49:36.015Z,17.10
2018-08-13T00:52:40.094Z,17.10
2018-08-13T00:55:43.789Z,17.10
2018-08-13T00:58:47.485Z,17.20
2018-08-13T01:01:51.198Z,17.20
2018-08-13T01:04:54.805Z,17.20
2018-08-13T01:07:58.436Z,17.20
2018-08-13T01:11:02.055Z,17.30
2018-08-13T01:14:06.156Z,17.30
2018-08-13T01:17:09.909Z,17.30
2018-08-13T01:20:15.068Z,17.30
2018-08-13T01:23:18.713Z,17.20
2018-08-13T01:26:22.325Z,17.10
2018-08-13T01:29:25.933Z,17.00
2018-08-13T01:32:30.325Z,16.90
2018-08-13T01:35:33.995Z,16.90
2018-08-13T01:38:37.758Z,16.80
2018-08-13T01:41:41.375Z,16.80
2018-08-13T01:44:45.034Z,16.70
2018-08-13T01:47:48.704Z,16.60
2018-08-13T01:50:53.384Z,16.60
2018-08-13T01:53:56.977Z,16.60
2018-08-13T01:57:00.627Z,16.50
2018-08-13T02:00:06.797Z,16.40
2018-08-13T02:03:10.504Z,16.40
2018-08-13T02:06:14.202Z,16.30
2018-08-13T02:09:17.905Z,16.30
2018-08-13T02:12:21.525Z,16.20
2018-08-13T02:15:25.147Z,16.10
2018-08-13T02:18:28.785Z,16.10
2018-08-13T02:21:32.409Z,16.00
2018-08-13T02:24:36.127Z,16.00
2018-08-13T02:27:39.754Z,15.90
2018-08-13T02:30:44.267Z,15.90
2018-08-13T02:33:47.882Z,15.80
2018-08-13T02:36:51.485Z,15.80
2018-08-13T02:39:55.131Z,15.90
2018-08-13T02:42:58.753Z,15.90
2018-08-13T02:46:02.407Z,15.80
2018-08-13T02:49:06.109Z,15.80
2018-08-13T02:52:09.707Z,15.80
2018-08-13T02:55:13.374Z,15.80
2018-08-13T02:58:17.219Z,15.70
2018-08-13T03:01:20.707Z,15.70
2018-08-13T03:04:24.339Z,15.60
2018-08-13T03:07:27.983Z,15.60
2018-08-13T03:10:31.615Z,15.50
2018-08-13T03:13:35.319Z,15.50
2018-08-13T03:16:38.995Z,15.40
2018-08-13T03:19:42.602Z,15.40
2018-08-13T03:22:46.230Z,15.30
2018-08-13T03:25:50.075Z,15.20
2018-08-13T03:28:53.802Z,15.20
2018-08-13T03:31:58.231Z,15.10
2018-08-13T03:35:01.928Z,15.10
2018-08-13T03:38:05.642Z,15.00
2018-08-13T03:41:09.263Z,15.00
2018-08-13T03:44:13.076Z,15.00
2018-08-13T03:47:16.752Z,15.10
2018-08-13T03:50:20.453Z,15.10
2018-08-13T03:53:24.094Z,15.10
2018-08-13T03:56:27.703Z,15.10
2018-08-13T03:59:31.336Z,15.20
2018-08-13T04:02:34.962Z,15.20
2018-08-13T04:05:38.590Z,15.20
2018-08-13T04:08:42.262Z,15.30
2018-08-13T04:11:45.926Z,15.40
2018-08-13T04:14:49.502Z,15.50
2018-08-13T04:17:53.129Z,15.50
2018-08-13T04:20:56.978Z,15.60
2018-08-13T04:24:00.838Z,15.80
2018-08-13T04:27:04.511Z,15.90
2018-08-13T04:30:12.897Z,16.20
2018-08-13T04:33:16.506Z,16.40
2018-08-13T04:36:20.210Z,16.40
2018-08-13T04:39:23.816Z,16.40
2018-08-13T04:42:27.473Z,16.40
2018-08-13T04:45:31.128Z,16.50
2018-08-13T04:48:35.030Z,16.80
2018-08-13T04:51:38.631Z,17.70
2018-08-13T04:54:42.271Z,19.10
2018-08-13T04:57:45.894Z,20.20
2018-08-13T05:00:49.646Z,21.00
2018-08-13T05:03:53.253Z,21.60
2018-08-13T05:06:56.906Z,21.90
2018-08-13T05:10:00.549Z,22.20
2018-08-13T05:13:04.179Z,22.20
2018-08-13T05:16:07.965Z,22.40
2018-08-13T05:19:11.600Z,22.60
2018-08-13T05:22:15.288Z,22.70
2018-08-13T05:25:18.968Z,22.80
2018-08-13T05:28:22.657Z,23.00
2018-08-13T05:31:26.317Z,22.70
2018-08-13T05:34:30.042Z,22.70
2018-08-13T05:37:33.679Z,22.90
2018-08-13T05:40:37.430Z,23.10
2018-08-13T05:43:41.203Z,23.50
2018-08-13T05:46:44.970Z,23.80
2018-08-13T05:49:48.619Z,23.90
2018-08-13T05:52:52.261Z,23.80
2018-08-13T05:55:55.908Z,23.80
2018-08-13T05:58:59.655Z,24.10
2018-08-13T06:02:04.294Z,24.10
2018-08-13T06:05:08.191Z,24.10
2018-08-13T06:08:12.098Z,24.90
2018-08-13T06:11:15.940Z,25.40
2018-08-13T06:14:19.510Z,25.10
2018-08-13T06:17:23.152Z,25.40
2018-08-13T06:27:58.755Z,25.30
2018-08-13T06:31:02.419Z,25.80
2018-08-13T06:34:06.109Z,25.90
2018-08-13T06:37:09.750Z,26.10
2018-08-13T06:40:13.631Z,26.50
2018-08-13T06:43:17.299Z,26.70
2018-08-13T06:46:20.974Z,26.50
2018-08-13T06:49:24.577Z,26.10
2018-08-13T06:52:28.298Z,26.10
2018-08-13T06:55:31.911Z,26.20
2018-08-13T06:58:35.763Z,26.80
2018-08-13T07:01:39.624Z,26.90
2018-08-13T07:04:43.287Z,26.80
2018-08-13T07:07:47.030Z,27.10
2018-08-13T07:10:50.737Z,27.20
2018-08-13T07:13:54.486Z,27.00
2018-08-13T07:16:58.127Z,27.90
2018-08-13T07:20:02.226Z,28.10
2018-08-13T07:23:05.928Z,27.90
2018-08-13T07:26:09.539Z,28.30
2018-08-13T07:29:13.184Z,28.20
2018-08-13T07:32:16.823Z,28.40
2018-08-13T07:35:20.493Z,28.90
2018-08-13T07:38:24.120Z,29.50
2018-08-13T07:41:27.775Z,29.20
2018-08-13T07:44:31.431Z,28.80
2018-08-13T07:47:35.304Z,29.70
2018-08-13T07:50:38.960Z,29.50
2018-08-13T07:53:42.612Z,29.00
2018-08-13T07:56:46.583Z,29.70
2018-08-13T07:59:50.226Z,29.20
2018-08-13T08:02:53.819Z,29.40
2018-08-13T08:05:57.502Z,29.70
2018-08-13T08:09:01.127Z,29.60
2018-08-13T08:12:05.051Z,29.90
2018-08-13T08:15:11.168Z,30.50
2018-08-13T08:18:15.354Z,30.10
2018-08-13T08:21:19.252Z,30.00
2018-08-13T08:24:22.837Z,29.90
2018-08-13T08:27:26.515Z,30.20
2018-08-13T08:30:30.235Z,30.60
2018-08-13T08:33:33.995Z,31.10
2018-08-13T08:36:37.699Z,31.00
2018-08-13T08:39:41.511Z,31.00
2018-08-13T08:42:45.223Z,30.70
2018-08-13T08:45:48.862Z,30.60
2018-08-13T08:48:52.607Z,31.20
2018-08-13T08:51:56.230Z,31.40
2018-08-13T08:54:59.878Z,31.70
2018-08-13T08:58:03.487Z,31.90
2018-08-13T09:01:07.204Z,31.40
2018-08-13T09:04:10.876Z,30.60
2018-08-13T09:07:14.509Z,30.10
2018-08-13T09:10:18.122Z,30.40
2018-08-13T09:13:21.840Z,30.40
2018-08-13T09:16:25.504Z,30.40
2018-08-13T09:19:40.623Z,30.30
2018-08-13T09:22:55.892Z,31.10
2018-08-13T09:26:11.206Z,31.10
2018-08-13T09:29:26.331Z,31.10
2018-08-13T09:32:41.688Z,30.80
2018-08-13T09:35:45.317Z,30.50
2018-08-13T09:38:49.063Z,30.90
2018-08-13T09:41:52.651Z,30.80
2018-08-13T09:44:56.325Z,31.00
2018-08-13T09:48:00.024Z,31.00
2018-08-13T09:51:03.728Z,30.70
2018-08-13T09:54:07.435Z,30.80
2018-08-13T09:57:11.136Z,30.90
2018-08-13T10:00:22.042Z,30.80
2018-08-13T10:03:25.618Z,30.70
2018-08-13T10:06:29.238Z,30.90
2018-08-13T10:09:33.109Z,31.10
2018-08-13T10:12:36.824Z,31.50
2018-08-13T10:15:40.479Z,31.30
2018-08-13T10:18:44.110Z,31.30
2018-08-13T10:21:47.783Z,31.30
2018-08-13T10:24:51.636Z,31.70
2018-08-13T10:27:55.547Z,31.50
2018-08-13T10:30:59.193Z,31.80
2018-08-13T10:34:02.836Z,31.90
2018-08-13T10:37:06.551Z,31.90
2018-08-13T10:40:13.730Z,31.70
2018-08-13T10:43:17.582Z,31.80
2018-08-13T10:46:21.234Z,31.90
2018-08-13T10:49:24.897Z,31.70
2018-08-13T10:52:28.546Z,31.50
2018-08-13T10:55:32.254Z,31.50
2018-08-13T10:58:35.966Z,31.20
2018-08-13T11:01:39.583Z,31.10
2018-08-13T11:04:43.366Z,31.30
2018-08-13T11:07:46.979Z,31.80
2018-08-13T11:10:50.620Z,32.10
2018-08-13T11:13:54.283Z,31.90
2018-08-13T11:16:58.038Z,31.80
2018-08-13T11:20:01.696Z,31.40
2018-08-13T11:26:15.611Z,31.40
2018-08-13T11:29:19.284Z,31.10
2018-08-13T11:32:22.990Z,30.90
2018-08-13T11:35:26.908Z,30.80
2018-08-13T11:38:30.594Z,30.90
2018-08-13T11:41:34.292Z,30.90
2018-08-13T11:44:37.898Z,30.90
2018-08-13T11:47:41.900Z,30.90
2018-08-13T11:50:45.511Z,30.90
2018-08-13T11:53:49.194Z,31.00
2018-08-13T11:56:52.937Z,31.10
2018-08-13T11:59:56.699Z,31.10
2018-08-13T12:03:00.345Z,31.20
2018-08-13T12:06:04.015Z,31.10
2018-08-13T12:09:09.355Z,30.90
2018-08-13T12:12:13.072Z,30.80
2018-08-13T12:15:16.769Z,30.80
2018-08-13T12:18:20.433Z,30.90
2018-08-13T12:21:24.103Z,31.00
2018-08-13T12:24:27.807Z,31.10
2018-08-13T12:27:31.390Z,31.10
2018-08-13T12:30:35.054Z,31.30
2018-08-13T12:33:38.766Z,31.30
2018-08-13T12:36:42.410Z,31.40
2018-08-13T12:39:46.059Z,31.60
2018-08-13T12:42:49.825Z,31.60
2018-08-13T12:45:53.447Z,31.70
2018-08-13T12:48:57.096Z,31.60
2018-08-13T12:52:00.755Z,31.50
2018-08-13T12:55:05.666Z,31.50
2018-08-13T12:58:09.263Z,31.50
2018-08-13T13:01:12.900Z,31.60
2018-08-13T13:04:16.521Z,31.50
2018-08-13T13:07:20.167Z,31.60
2018-08-13T13:10:23.771Z,31.60
2018-08-13T13:13:27.414Z,31.90
2018-08-13T13:16:31.056Z,32.00
2018-08-13T13:19:34.779Z,32.00
2018-08-13T13:22:38.386Z,32.20
2018-08-13T13:25:42.118Z,32.30
2018-08-13T13:28:45.774Z,32.30
2018-08-13T13:31:49.473Z,32.30
2018-08-13T13:34:53.143Z,32.30
2018-08-13T13:37:56.868Z,32.30
2018-08-13T13:41:00.479Z,32.30
2018-08-13T13:44:04.517Z,32.20
2018-08-13T13:47:08.124Z,32.10
2018-08-13T13:50:14.195Z,31.90
2018-08-13T13:53:17.851Z,31.90
2018-08-13T13:56:21.559Z,31.70
2018-08-13T13:59:25.227Z,31.50
2018-08-13T14:02:29.188Z,31.60
2018-08-13T14:05:32.823Z,31.60
2018-08-13T14:08:36.489Z,31.50
2018-08-13T14:11:40.143Z,31.60
2018-08-13T14:14:43.883Z,31.60
2018-08-13T14:17:47.576Z,31.70
2018-08-13T14:20:51.499Z,31.60
2018-08-13T14:23:55.180Z,31.30
2018-08-13T14:26:58.847Z,31.10
2018-08-13T14:30:09.211Z,31.00
2018-08-13T14:33:12.952Z,30.90
2018-08-13T14:36:16.694Z,30.80
2018-08-13T14:39:20.417Z,30.70
2018-08-13T14:42:24.046Z,30.60
2018-08-13T14:45:27.776Z,30.60
2018-08-13T14:48:31.935Z,30.50
2018-08-13T14:51:35.575Z,30.50
2018-08-13T14:54:39.179Z,30.40
2018-08-13T14:57:42.905Z,30.30
2018-08-13T15:00:46.635Z,30.20
2018-08-13T15:03:50.268Z,30.00
2018-08-13T15:06:53.906Z,29.90
2018-08-13T15:09:57.616Z,29.70
2018-08-13T15:13:01.552Z,29.50
2018-08-13T15:16:05.094Z,29.40
2018-08-13T15:19:09.429Z,29.30
2018-08-13T15:22:13.110Z,29.20
2018-08-13T15:25:16.760Z,29.00
2018-08-13T15:28:20.488Z,28.80
2018-08-13T15:31:24.119Z,28.50
2018-08-13T15:34:28.558Z,28.40
2018-08-13T15:37:32.207Z,28.10
2018-08-13T15:40:35.908Z,27.80
2018-08-13T15:43:39.620Z,27.60
2018-08-13T15:46:43.312Z,27.30
2018-08-13T15:49:46.961Z,27.20
2018-08-13T15:52:51.036Z,27.00
2018-08-13T15:55:54.740Z,26.90
2018-08-13T15:58:58.399Z,26.80
2018-08-13T16:02:02.003Z,26.70
2018-08-13T16:05:07.384Z,26.40
2018-08-13T16:08:11.033Z,26.10
2018-08-13T16:11:14.752Z,25.70
2018-08-13T16:14:18.403Z,25.40
2018-08-13T16:17:22.140Z,25.30
2018-08-13T16:20:25.777Z,25.20
2018-08-13T16:23:29.469Z,25.10
2018-08-13T16:26:33.145Z,25.10
2018-08-13T16:29:36.812Z,25.00
2018-08-13T16:32:40.451Z,24.90
2018-08-13T16:35:44.098Z,24.60
2018-08-13T16:38:47.828Z,24.50
2018-08-13T16:41:51.447Z,24.50
2018-08-13T16:44:55.077Z,24.40
2018-08-13T16:47:58.812Z,24.30
2018-08-13T16:51:02.433Z,24.30
2018-08-13T16:54:06.123Z,24.30
2018-08-13T16:57:09.840Z,24.20
2018-08-13T17:00:16.628Z,24.20
2018-08-13T17:03:20.514Z,24.10
2018-08-13T17:06:24.155Z,24.10
2018-08-13T17:09:27.832Z,24.10
2018-08-13T17:12:31.510Z,23.90
2018-08-13T17:15:35.149Z,23.90
2018-08-13T17:18:39.286Z,24.00
2018-08-13T17:21:43.516Z,23.90
2018-08-13T17:24:47.262Z,23.90
2018-08-13T17:27:50.915Z,24.00
2018-08-13T17:30:54.654Z,23.90
2018-08-13T17:33:58.352Z,23.90
2018-08-13T17:37:01.963Z,23.90
2018-08-13T17:40:07.959Z,24.00
2018-08-13T17:43:12.093Z,24.00
2018-08-13T17:46:15.462Z,23.80
2018-08-13T17:49:19.198Z,23.70
2018-08-13T17:52:22.956Z,23.70
2018-08-13T17:55:26.604Z,23.70
2018-08-13T17:58:31.140Z,23.60
2018-08-13T18:01:34.792Z,23.60
2018-08-13T18:04:38.391Z,23.70
2018-08-13T18:07:42.203Z,23.70
2018-08-13T18:10:45.831Z,23.70
2018-08-13T18:13:49.500Z,23.70
2018-08-13T18:16:53.213Z,23.50
2018-08-13T18:19:56.840Z,23.50
2018-08-13T18:23:00.566Z,23.50
2018-08-13T18:26:04.212Z,23.50
2018-08-13T18:29:08.337Z,23.40
2018-08-13T18:32:12.018Z,23.30
2018-08-13T18:35:15.737Z,22.90
2018-08-13T18:38:19.491Z,23.30
2018-08-13T18:41:23.130Z,23.30
2018-08-13T18:44:26.815Z,23.20
2018-08-13T18:51:04.798Z,23.10
2018-08-13T18:54:08.477Z,23.00
2018-08-13T18:57:16.861Z,22.90
2018-08-13T19:00:23.612Z,22.90
2018-08-13T19:03:27.406Z,22.80
2018-08-13T19:06:31.183Z,22.80
2018-08-13T19:09:34.785Z,22.80
2018-08-13T19:12:38.484Z,22.70
2018-08-13T19:15:42.131Z,22.70
2018-08-13T19:18:45.755Z,22.60
2018-08-13T19:21:49.409Z,22.50
2018-08-13T19:24:53.039Z,22.50
2018-08-13T19:27:56.778Z,22.50
2018-08-13T19:31:00.402Z,22.40
2018-08-13T19:34:04.142Z,22.40
2018-08-13T19:37:08.215Z,22.30
2018-08-13T19:40:15.156Z,22.30
2018-08-13T19:43:18.795Z,22.20
2018-08-13T19:46:22.671Z,22.10
2018-08-13T19:49:26.330Z,22.10
2018-08-13T19:52:29.971Z,22.00
2018-08-13T19:55:33.680Z,21.90
2018-08-13T19:58:37.295Z,21.80
2018-08-13T20:01:41.023Z,21.80
2018-08-13T20:04:44.662Z,21.80
2018-08-13T20:07:48.330Z,21.70
2018-08-13T20:10:52.033Z,21.70
2018-08-13T20:13:55.643Z,21.60
2018-08-13T20:16:59.283Z,21.50
2018-08-13T20:20:02.963Z,21.40
2018-08-13T20:23:06.776Z,21.30
2018-08-13T20:26:10.444Z,21.20
2018-08-13T20:29:14.146Z,21.20
2018-08-13T20:32:17.822Z,21.10
2018-08-13T20:35:23.793Z,21.10
2018-08-13T20:38:27.459Z,21.10
2018-08-13T20:41:31.130Z,21.10
2018-08-13T20:44:34.843Z,21.00
2018-08-13T20:47:38.518Z,21.00
2018-08-13T20:50:42.163Z,20.90
2018-08-13T20:53:45.895Z,20.90
2018-08-13T20:56:49.559Z,20.70
2018-08-13T20:59:53.216Z,20.70
2018-08-13T21:02:56.846Z,20.70
2018-08-13T21:06:00.514Z,20.70
2018-08-13T21:09:07.943Z,20.60
2018-08-13T21:12:11.772Z,20.50
2018-08-13T21:15:16.121Z,20.40
2018-08-13T21:18:19.873Z,20.30
2018-08-13T21:21:23.614Z,20.30
2018-08-13T21:24:27.303Z,20.30
2018-08-13T21:27:31.009Z,20.40
2018-08-13T21:30:34.682Z,20.40
2018-08-13T21:33:38.411Z,20.40
2018-08-13T21:36:42.074Z,20.40
2018-08-13T21:39:45.755Z,20.40
2018-08-13T21:42:49.943Z,20.40
2018-08-13T21:45:53.894Z,20.40
2018-08-13T21:48:57.584Z,20.40
2018-08-13T21:52:01.227Z,20.40
2018-08-13T21:55:05.682Z,20.40
2018-08-13T21:58:09.331Z,20.40
2018-08-13T22:01:18.555Z,20.40
2018-08-13T22:04:22.291Z,20.40
2018-08-13T22:07:26.040Z,20.30
2018-08-13T22:10:29.722Z,20.30
2018-08-13T22:13:33.347Z,20.30
2018-08-13T22:16:37.150Z,20.20
2018-08-13T22:19:40.773Z,20.20
2018-08-13T22:22:44.536Z,20.20
2018-08-13T22:25:48.210Z,20.10
2018-08-13T22:28:51.874Z,20.10
2018-08-13T22:31:55.507Z,20.10
2018-08-13T22:34:59.227Z,20.00
2018-08-13T22:38:02.834Z,20.00
2018-08-13T22:41:07.034Z,20.10
2018-08-13T22:44:10.715Z,20.00
2018-08-13T22:47:14.400Z,19.90
2018-08-13T22:50:18.119Z,19.90
2018-08-13T22:53:21.749Z,19.90
2018-08-13T22:56:25.355Z,19.90
2018-08-13T22:59:29.030Z,19.80
2018-08-13T23:02:32.648Z,19.80
2018-08-13T23:05:36.325Z,19.70
2018-08-13T23:08:40.440Z,19.80
2018-08-13T23:11:44.041Z,19.80
2018-08-13T23:14:47.724Z,19.80
2018-08-13T23:17:51.786Z,19.80
2018-08-13T23:20:55.431Z,19.70
2018-08-13T23:23:59.071Z,19.70
2018-08-13T23:27:02.695Z,19.70
2018-08-13T23:30:06.443Z,19.70
2018-08-13T23:33:10.129Z,19.60
2018-08-13T23:36:13.750Z,19.60
2018-08-13T23:39:17.388Z,19.60
2018-08-13T23:42:21.016Z,19.60
2018-08-13T23:45:27.064Z,19.50
2018-08-13T23:48:31.009Z,19.50
2018-08-13T23:51:34.950Z,19.50
2018-08-13T23:54:38.758Z,19.50
2018-08-13T23:57:42.374Z,19.50
